Time;durP1;ratioP1;P1;durP2;ratioP2;P2;SDS_P1;SDS_P2;PMS_P1;PMS_P2;Temp;Humidity;BMP_temperature;BMP_pressure;BME280_temperature;BME280_humidity;BME280_pressure;Samples;Min_cycle;Max_cycle;Signal;HPM_P1;HPM_P2
2021/07/25 00:00:19;;;;;;;7.53;3.37;;;;;;;17.35;71.49;101335.19;1846842;77;20987;-85
2021/07/25 00:02:50;;;;;;;5.80;3.47;;;;;;;17.32;71.56;101332.05;1846472;76;21488;-85
2021/07/25 00:05:16;;;;;;;6.15;3.77;;;;;;;17.28;71.52;101333.80;1831944;77;21440;-85
2021/07/25 00:07:42;;;;;;;10.40;3.70;;;;;;;17.22;71.55;101328.89;1847494;77;21835;-85
2021/07/25 00:10:11;;;;;;;5.72;3.52;;;;;;;17.16;71.64;101332.39;1846997;77;21014;-84
2021/07/25 00:12:38;;;;;;;5.87;3.58;;;;;;;17.13;71.72;101328.82;1846853;77;21074;-85
2021/07/25 00:15:06;;;;;;;5.03;3.22;;;;;;;17.10;71.77;101322.60;1846530;77;21018;-85
2021/07/25 00:17:33;;;;;;;8.55;4.05;;;;;;;17.09;71.81;101321.25;1846773;77;21030;-85
2021/07/25 00:20:01;;;;;;;4.33;3.27;;;;;;;17.05;71.77;101323.45;1846789;77;21186;-85
2021/07/25 00:22:28;;;;;;;6.37;3.85;;;;;;;17.01;71.85;101330.95;1846654;77;21553;-85
2021/07/25 00:25:18;;;;;;;7.35;3.62;;;;;;;16.95;71.91;101329.55;1846812;76;20971;-85
2021/07/25 00:27:41;;;;;;;5.95;3.95;;;;;;;16.89;71.97;101327.73;1844969;77;21624;-84
2021/07/25 00:30:10;;;;;;;5.65;3.83;;;;;;;16.85;72.10;101319.29;1846758;77;21552;-84
2021/07/25 00:32:38;;;;;;;8.38;4.25;;;;;;;16.81;72.17;101321.00;1846827;77;21751;-84
2021/07/25 00:35:05;;;;;;;9.63;4.40;;;;;;;16.79;72.26;101319.22;1846656;77;21003;-84
2021/07/25 00:37:32;;;;;;;8.08;4.70;;;;;;;16.75;72.36;101313.42;1846952;77;20987;-84
2021/07/25 00:39:58;;;;;;;4.40;3.58;;;;;;;16.74;72.44;101316.50;1846879;77;21086;-84
2021/07/25 00:42:25;;;;;;;10.03;4.08;;;;;;;16.72;72.45;101314.27;1846890;77;21470;-84
2021/07/25 00:44:52;;;;;;;13.32;5.03;;;;;;;16.70;72.53;101313.36;1846837;77;22610;-84
2021/07/25 00:47:18;;;;;;;11.22;5.05;;;;;;;16.66;72.55;101316.43;1846810;77;20968;-84
2021/07/25 00:49:45;;;;;;;8.25;4.35;;;;;;;16.63;72.60;101318.17;1847033;76;20984;-84
2021/07/25 00:52:12;;;;;;;6.17;5.20;;;;;;;16.60;72.70;101310.19;1847035;77;21002;-84
2021/07/25 00:54:38;;;;;;;8.23;5.25;;;;;;;16.56;72.78;101310.59;1846865;77;20987;-84
2021/07/25 00:57:05;;;;;;;8.45;3.90;;;;;;;16.52;72.89;101311.00;1842836;77;21752;-84
2021/07/25 00:59:32;;;;;;;6.70;4.00;;;;;;;16.50;72.96;101306.56;1847017;77;20968;-85
2021/07/25 01:01:59;;;;;;;5.80;3.58;;;;;;;16.49;73.04;101304.77;1847136;76;20998;-84
2021/07/25 01:05:07;;;;;;;8.25;3.65;;;;;;;16.47;73.11;101301.20;1846904;76;20976;-84
2021/07/25 01:07:45;;;;;;;4.55;2.98;;;;;;;16.46;73.21;101297.66;1841775;77;21001;-85
2021/07/25 01:10:17;;;;;;;6.72;3.83;;;;;;;16.46;73.25;101292.77;1772949;80;21771;-85
2021/07/25 01:12:47;;;;;;;5.35;3.27;;;;;;;16.44;73.32;101299.42;1796302;77;21042;-85
2021/07/25 01:15:20;;;;;;;4.78;3.27;;;;;;;16.44;73.36;101299.83;1797112;79;20984;-85
2021/07/25 01:17:46;;;;;;;8.45;3.98;;;;;;;16.41;73.40;101299.38;1798190;79;21011;-85
2021/07/25 01:20:13;;;;;;;7.85;3.62;;;;;;;16.38;73.46;101296.68;1798341;79;21004;-85
2021/07/25 01:22:45;;;;;;;8.35;3.80;;;;;;;16.38;73.51;101292.70;1798035;79;22444;-85
2021/07/25 01:25:13;;;;;;;11.10;3.67;;;;;;;16.36;73.54;101295.78;1824168;78;21010;-85
2021/07/25 01:28:15;;;;;;;5.83;3.58;;;;;;;16.36;73.58;101298.44;1811611;78;21523;-85
2021/07/25 01:30:45;;;;;;;6.53;3.62;;;;;;;16.35;73.63;101297.09;1809594;79;21011;-85
2021/07/25 01:33:15;;;;;;;6.15;3.40;;;;;;;16.35;73.62;101292.69;1809239;79;21516;-85
2021/07/25 01:35:42;;;;;;;13.25;3.92;;;;;;;16.32;73.65;101286.00;1809398;79;22571;-86
2021/07/25 01:38:08;;;;;;;6.95;3.85;;;;;;;16.31;73.66;101282.88;1809371;79;20947;-86
2021/07/25 01:40:37;;;;;;;10.43;4.17;;;;;;;16.28;73.69;101277.55;1809487;79;20999;-85
2021/07/25 01:43:06;;;;;;;7.78;4.30;;;;;;;16.26;73.71;101281.97;1809478;79;21178;-86
2021/07/25 01:45:32;;;;;;;7.17;3.83;;;;;;;16.25;73.76;101287.69;1809387;77;20952;-86
2021/07/25 01:47:59;;;;;;;11.90;4.95;;;;;;;16.25;73.81;101289.47;1806305;78;21846;-85
2021/07/25 01:50:26;;;;;;;7.95;4.05;;;;;;;16.25;73.82;101292.13;1806411;78;38051;-85
2021/07/25 01:52:53;;;;;;;6.03;4.22;;;;;;;16.24;73.81;101292.57;1817385;79;21503;-85
2021/07/25 01:55:20;;;;;;;5.17;3.62;;;;;;;16.21;73.78;101287.66;1817722;79;20955;-84
2021/07/25 01:57:47;;;;;;;9.48;3.60;;;;;;;16.19;73.84;101282.77;1817885;79;21002;-86
2021/07/25 02:00:14;;;;;;;4.80;3.30;;;;;;;16.17;73.91;101281.87;1817978;79;21735;-86
2021/07/25 02:02:40;;;;;;;5.42;3.47;;;;;;;16.15;73.94;101276.53;1817809;79;21491;-85
2021/07/25 02:05:08;;;;;;;5.15;3.77;;;;;;;16.12;73.96;101276.48;1817880;78;20986;-85
2021/07/25 02:07:35;;;;;;;5.92;3.55;;;;;;;16.09;73.98;101282.67;1817705;78;21053;-85
2021/07/25 02:10:01;;;;;;;5.85;3.20;;;;;;;16.08;74.02;101279.99;1817731;79;21033;-85
2021/07/25 02:12:28;;;;;;;7.70;3.12;;;;;;;16.05;74.01;101282.19;1817736;79;22339;-85
2021/07/25 02:14:55;;;;;;;4.70;3.55;;;;;;;16.04;74.08;101282.17;1817593;79;21456;-84
2021/07/25 02:17:21;;;;;;;10.60;3.58;;;;;;;16.02;74.09;101278.16;1817773;79;21103;-85
2021/07/25 02:19:48;;;;;;;6.85;3.55;;;;;;;16.01;74.10;101288.76;1817769;79;21046;-85
2021/07/25 02:22:15;;;;;;;6.08;3.60;;;;;;;15.98;74.17;101292.28;1817755;78;20993;-85
2021/07/25 02:24:42;;;;;;;6.75;4.08;;;;;;;15.97;74.22;101291.81;1817881;79;21808;-84
2021/07/25 02:27:09;;;;;;;7.37;4.12;;;;;;;15.96;74.26;101284.73;1815162;79;21479;-85
2021/07/25 02:29:35;;;;;;;5.12;3.80;;;;;;;15.96;74.29;101284.73;1817572;78;20927;-85
2021/07/25 02:32:03;;;;;;;9.25;4.42;;;;;;;15.93;74.31;101285.61;1817348;78;21018;-85
2021/07/25 02:34:30;;;;;;;6.15;3.67;;;;;;;15.92;74.37;101284.26;1817762;78;20986;-85
2021/07/25 02:36:56;;;;;;;5.83;3.85;;;;;;;15.91;74.43;101287.77;1817748;79;22589;-84
2021/07/25 02:39:23;;;;;;;7.35;3.50;;;;;;;15.90;74.48;101289.98;1817713;78;21033;-84
2021/07/25 02:41:50;;;;;;;6.45;3.65;;;;;;;15.90;74.50;101285.56;1817718;79;21029;-84
2021/07/25 02:44:16;;;;;;;6.37;4.10;;;;;;;15.90;74.50;101283.34;1817770;79;21162;-85
2021/07/25 02:46:43;;;;;;;4.83;3.40;;;;;;;15.88;74.51;101285.09;1817878;78;21068;-85
2021/07/25 02:49:10;;;;;;;9.08;3.70;;;;;;;15.87;74.58;101275.34;1817611;79;21727;-85
2021/07/25 02:51:36;;;;;;;5.80;3.77;;;;;;;15.88;74.62;101275.36;1817597;79;21558;-85
2021/07/25 02:54:03;;;;;;;6.28;4.00;;;;;;;15.90;74.65;101259.02;1817706;78;21026;-85
2021/07/25 02:56:30;;;;;;;6.53;3.80;;;;;;;15.91;74.67;101255.91;1817646;79;21437;-84
2021/07/25 02:58:56;;;;;;;5.10;3.83;;;;;;;15.95;74.68;101249.75;1817662;78;21567;-85
2021/07/25 03:01:23;;;;;;;5.55;4.00;;;;;;;15.99;74.70;101253.34;1817778;78;21773;-85
2021/07/25 03:03:50;;;;;;;4.70;3.47;;;;;;;16.02;74.74;101252.94;1809664;79;21001;-85
2021/07/25 03:06:17;;;;;;;5.83;3.83;;;;;;;16.06;74.77;101254.74;1817742;78;20998;-85
2021/07/25 03:08:43;;;;;;;5.87;3.27;;;;;;;16.10;74.70;101257.00;1817719;79;21030;-85
2021/07/25 03:11:10;;;;;;;5.37;3.72;;;;;;;16.15;74.70;101255.28;1817807;79;20987;-85
2021/07/25 03:13:37;;;;;;;6.85;3.62;;;;;;;16.20;74.62;101255.31;1817576;78;21804;-85
2021/07/25 03:16:05;;;;;;;7.35;4.25;;;;;;;16.26;74.59;101256.73;1813037;78;20967;-85
2021/07/25 03:18:32;;;;;;;6.17;4.47;;;;;;;16.30;74.51;101250.56;1810347;79;21026;-85
2021/07/25 03:20:59;;;;;;;8.10;4.45;;;;;;;16.34;74.46;101248.38;1814570;78;21049;-85
2021/07/25 03:23:26;;;;;;;8.15;4.47;;;;;;;16.38;74.42;101243.98;1817602;79;21534;-85
2021/07/25 03:25:53;;;;;;;6.08;3.52;;;;;;;16.45;74.47;101250.70;1817595;78;22395;-85
2021/07/25 03:28:20;;;;;;;8.60;4.37;;;;;;;16.57;74.41;101245.03;1817143;78;20969;-84
2021/07/25 03:30:47;;;;;;;6.92;4.00;;;;;;;16.67;74.31;101237.16;1817452;78;21058;-85
2021/07/25 03:33:15;;;;;;;8.08;3.62;;;;;;;16.80;74.28;101242.55;1817207;79;21104;-84
2021/07/25 03:35:41;;;;;;;5.28;3.65;;;;;;;16.96;74.13;101243.59;1817141;77;21036;-85
2021/07/25 03:38:08;;;;;;;8.03;3.50;;;;;;;17.11;74.02;101251.66;1817344;79;21822;-84
2021/07/25 03:40:35;;;;;;;6.40;3.70;;;;;;;17.28;73.84;101249.98;1817385;78;20974;-85
2021/07/25 03:43:02;;;;;;;5.65;3.80;;;;;;;17.47;73.59;101252.73;1817507;79;21058;-85
2021/07/25 03:45:29;;;;;;;6.22;4.17;;;;;;;17.67;73.33;101250.17;1780577;78;21468;-85
2021/07/25 03:47:55;;;;;;;5.97;3.27;;;;;;;18.04;73.76;101248.54;1817313;79;21014;-85
2021/07/25 03:50:22;;;;;;;4.92;3.33;;;;;;;18.84;74.00;101250.38;1817316;78;21781;-85
2021/07/25 03:52:49;;;;;;;4.35;3.00;;;;;;;19.89;73.51;101249.63;1817229;78;21029;-85
2021/07/25 03:55:16;;;;;;;6.53;3.33;;;;;;;21.02;72.60;101243.00;1817461;78;21487;-85
2021/07/25 03:57:43;;;;;;;4.55;3.35;;;;;;;22.00;71.16;101243.59;1817418;78;21002;-85
2021/07/25 04:00:10;;;;;;;4.58;3.12;;;;;;;23.06;69.89;101251.73;1807420;78;20995;-85
2021/07/25 04:02:37;;;;;;;6.90;3.30;;;;;;;24.01;68.00;101255.17;1817661;78;21735;-85
2021/07/25 04:05:05;;;;;;;5.20;3.47;;;;;;;24.85;66.41;101245.95;1817696;79;20958;-85
2021/07/25 04:07:32;;;;;;;6.40;3.90;;;;;;;25.71;65.17;101235.47;1818925;78;21374;-85
2021/07/25 04:09:59;;;;;;;4.10;3.05;;;;;;;26.54;63.47;101244.11;1817508;78;21075;-85
2021/07/25 04:12:26;;;;;;;7.22;3.83;;;;;;;27.26;61.77;101247.53;1817431;79;20972;-85
2021/07/25 04:14:52;;;;;;;4.12;3.20;;;;;;;27.84;60.16;101248.02;1817708;78;21578;-85
2021/07/25 04:17:19;;;;;;;3.60;2.83;;;;;;;28.41;59.18;101250.28;1817584;78;20970;-85
2021/07/25 04:19:46;;;;;;;7.50;3.25;;;;;;;29.08;57.95;101249.23;1817712;79;20966;-84
2021/07/25 04:22:12;;;;;;;5.37;2.70;;;;;;;29.59;56.43;101250.54;1817723;79;21515;-85
2021/07/25 04:24:39;;;;;;;4.53;2.60;;;;;;;30.08;55.40;101253.27;1811835;79;21012;-85
2021/07/25 04:27:07;;;;;;;6.90;3.00;;;;;;;30.67;54.50;101251.24;1817774;78;21686;-85
2021/07/25 04:29:35;;;;;;;5.45;3.08;;;;;;;31.29;53.30;101257.08;1837855;77;21378;-85
2021/07/25 04:32:02;;;;;;;6.37;2.80;;;;;;;31.90;52.17;101252.85;1852381;77;21542;-85
2021/07/25 04:34:30;;;;;;;4.03;3.10;;;;;;;32.35;50.73;101258.88;1858239;77;21224;-85
2021/07/25 04:36:59;;;;;;;3.90;2.35;;;;;;;32.71;49.83;101259.55;1858726;77;21527;-85
2021/07/25 04:39:26;;;;;;;4.72;2.58;;;;;;;33.07;48.58;101259.17;1858700;77;21809;-85
2021/07/25 04:41:56;;;;;;;3.67;2.55;;;;;;;33.35;47.58;101250.64;1858692;76;20979;-85
2021/07/25 04:44:29;;;;;;;5.33;2.30;;;;;;;33.46;46.95;101248.10;1858719;76;21061;-85
2021/07/25 04:46:59;;;;;;;7.03;2.37;;;;;;;34.15;46.40;101246.00;1858568;77;21009;-85
2021/07/25 04:49:39;;;;;;;6.12;1.98;;;;;;;34.64;44.84;101246.31;1814684;77;21014;-85
2021/07/25 04:52:07;;;;;;;3.52;2.25;;;;;;;34.69;44.15;101246.05;1858412;77;22643;-86
2021/07/25 04:54:35;;;;;;;5.62;2.15;;;;;;;35.42;43.87;101245.47;1858537;77;20927;-85
2021/07/25 04:57:05;;;;;;;3.67;2.15;;;;;;;36.11;42.62;101245.00;1858639;76;21002;-85
2021/07/25 04:59:46;;;;;;;3.08;1.87;;;;;;;36.78;42.08;101245.00;1858743;77;20970;-85
2021/07/25 05:02:15;;;;;;;2.15;1.72;;;;;;;37.40;40.58;101244.28;1858697;77;21484;-85
2021/07/25 05:04:42;;;;;;;2.52;1.95;;;;;;;37.81;39.67;101246.92;1858569;77;21762;-85
2021/07/25 05:07:11;;;;;;;2.27;1.98;;;;;;;38.14;38.80;101251.48;1850934;77;20983;-85
2021/07/25 05:09:40;;;;;;;4.00;1.70;;;;;;;38.45;37.77;101251.66;1843772;77;21499;-85
2021/07/25 05:12:33;;;;;;;2.35;1.60;;;;;;;38.60;37.04;101250.87;1842977;77;20995;-85
2021/07/25 05:15:03;;;;;;;;;;;;;;;38.80;36.57;101251.40;1849104;76;21061;-85
2021/07/25 05:18:01;;;;;;;6.25;2.02;;;;;;;39.18;35.24;101250.45;1842679;77;21674;-85
2021/07/25 05:20:57;;;;;;;5.00;2.22;;;;;;;39.29;35.11;101254.50;1850611;77;21460;-85
2021/07/25 05:23:33;;;;;;;4.37;2.08;;;;;;;39.25;34.21;101252.52;1851660;77;21068;-85
2021/07/25 05:25:59;;;;;;;6.42;2.52;;;;;;;39.33;33.78;101244.08;1858687;77;21058;-85
2021/07/25 05:28:26;;;;;;;3.87;2.15;;;;;;;39.22;33.02;101237.64;1858698;76;20995;-85
2021/07/25 05:30:55;;;;;;;2.75;1.87;;;;;;;38.93;32.69;101242.95;1858460;77;21737;-85
2021/07/25 05:33:22;;;;;;;4.00;2.50;;;;;;;38.81;32.61;101236.62;1858475;77;21014;-85
2021/07/25 05:35:49;;;;;;;1.85;1.72;;;;;;;39.05;32.43;101239.13;1858580;77;21015;-85
2021/07/25 05:38:18;;;;;;;3.80;2.20;;;;;;;38.92;31.77;101241.70;1858592;77;21158;-84
2021/07/25 05:40:44;;;;;;;2.92;1.80;;;;;;;38.59;31.66;101237.59;1857516;77;21030;-85
2021/07/25 05:43:11;;;;;;;7.00;2.10;;;;;;;38.56;31.53;101239.27;1858546;77;21723;-84
2021/07/25 05:45:37;;;;;;;3.02;1.80;;;;;;;38.19;31.45;101239.61;1858441;77;20986;-85
2021/07/25 05:48:05;;;;;;;3.30;2.60;;;;;;;36.89;30.91;101244.17;1858516;77;20967;-85
2021/07/25 05:50:32;;;;;;;2.20;2.00;;;;;;;34.91;31.66;101235.83;1858505;77;20932;-85
2021/07/25 05:52:59;;;;;;;6.78;1.98;;;;;;;33.27;32.75;101235.25;1859129;77;21077;-85
2021/07/25 05:55:29;;;;;;;4.35;2.35;;;;;;;31.66;33.83;101241.00;1858641;77;21739;-85
2021/07/25 05:57:56;;;;;;;3.10;2.20;;;;;;;30.29;35.28;101241.33;1858480;77;21069;-85
2021/07/25 06:00:23;;;;;;;3.95;2.37;;;;;;;29.52;36.70;101238.70;1858471;76;21030;-85
2021/07/25 06:03:00;;;;;;;3.05;2.33;;;;;;;28.85;37.56;101240.30;1858683;77;21511;-85
2021/07/25 06:05:33;;;;;;;5.50;2.60;;;;;;;28.33;38.59;101237.55;1805409;76;21076;-85
2021/07/25 06:07:59;;;;;;;9.77;3.13;;;;;;;27.71;39.19;101238.14;1823359;77;21772;-85
2021/07/25 06:10:29;;;;;;;4.00;2.70;;;;;;;27.22;40.07;101242.67;1828165;77;21614;-85
2021/07/25 06:12:58;;;;;;;5.05;2.75;;;;;;;26.87;41.04;101242.10;1846725;76;21136;-85
2021/07/25 06:15:25;;;;;;;5.12;3.00;;;;;;;26.63;41.66;101231.68;1846803;77;21090;-85
2021/07/25 06:17:52;;;;;;;4.65;2.65;;;;;;;26.43;42.16;101233.69;1846951;77;21030;-85
2021/07/25 06:20:18;;;;;;;5.15;2.98;;;;;;;26.22;42.66;101236.61;1846886;77;21801;-85
2021/07/25 06:22:50;;;;;;;5.85;4.08;;;;;;;25.85;43.24;101231.02;1846932;77;21084;-85
2021/07/25 06:25:20;;;;;;;6.78;4.80;;;;;;;25.57;43.83;101226.94;1817789;76;21552;-85
2021/07/25 06:27:51;;;;;;;4.95;4.00;;;;;;;25.33;44.38;101228.06;1819013;77;21373;-85
2021/07/25 06:30:19;;;;;;;4.97;3.67;;;;;;;25.16;44.79;101231.20;1830333;77;21503;-85
2021/07/25 06:33:06;;;;;;;3.83;3.35;;;;;;;25.00;45.26;101228.06;1846961;77;21761;-85
2021/07/25 06:35:36;;;;;;;4.70;3.27;;;;;;;24.82;45.68;101229.91;1815653;77;20976;-85
2021/07/25 06:38:06;;;;;;;6.30;3.77;;;;;;;24.69;46.36;101227.12;1818339;77;21536;-85
2021/07/25 06:40:33;;;;;;;5.15;3.58;;;;;;;24.73;46.76;101222.07;1845886;77;21536;-85
2021/07/25 06:43:00;;;;;;;5.78;3.20;;;;;;;24.69;47.01;101227.99;1847096;77;21068;-85
2021/07/25 06:45:27;;;;;;;8.78;3.62;;;;;;;24.61;47.52;101222.81;1847038;76;21731;-85
2021/07/25 06:47:54;;;;;;;4.62;3.95;;;;;;;24.63;47.65;101222.78;1846860;77;21022;-85
2021/07/25 06:50:23;;;;;;;6.87;3.62;;;;;;;24.60;47.84;101223.72;1846818;77;21441;-85
2021/07/25 06:52:50;;;;;;;5.45;3.27;;;;;;;24.62;48.00;101219.65;1846802;77;21003;-85
2021/07/25 06:55:17;;;;;;;8.73;3.62;;;;;;;24.70;47.95;101223.48;1846970;77;21051;-85
2021/07/25 06:57:44;;;;;;;6.03;4.00;;;;;;;24.82;47.97;101222.70;1821195;77;21726;-85
2021/07/25 07:00:11;;;;;;;8.83;3.60;;;;;;;24.84;48.05;101229.40;1846860;77;21030;-85
2021/07/25 07:02:55;;;;;;;5.10;3.60;;;;;;;24.88;48.20;101221.66;1846894;77;21051;-85
2021/07/25 07:05:31;;;;;;;5.37;3.62;;;;;;;24.99;48.26;101217.33;1835013;77;21069;-85
2021/07/25 07:08:02;;;;;;;7.42;4.20;;;;;;;25.01;48.43;101223.08;1846865;77;21062;-85
2021/07/25 07:10:32;;;;;;;14.23;4.00;;;;;;;24.99;48.45;101224.94;1842374;77;21758;-85
2021/07/25 07:13:02;;;;;;;7.72;3.58;;;;;;;25.03;48.77;101227.96;1846546;77;21077;-85
2021/07/25 07:15:29;;;;;;;7.00;4.65;;;;;;;25.10;48.72;101219.73;1823620;75;20982;-85
2021/07/25 07:17:57;;;;;;;10.65;4.10;;;;;;;25.16;48.76;101228.51;1813487;77;21042;-85
2021/07/25 07:20:24;;;;;;;5.67;4.25;;;;;;;25.20;48.70;101222.58;1858785;77;21058;-85
2021/07/25 07:23:01;;;;;;;7.83;4.25;;;;;;;25.26;48.54;101221.55;1858567;77;22450;-85
2021/07/25 07:25:32;;;;;;;5.17;4.35;;;;;;;25.30;48.58;101217.39;1842877;77;21022;-85
2021/07/25 07:27:58;;;;;;;6.37;3.85;;;;;;;25.32;48.52;101214.19;1858207;77;21065;-85
2021/07/25 07:30:25;;;;;;;8.80;4.50;;;;;;;25.39;48.67;101221.61;1858314;77;21531;-85
2021/07/25 07:32:52;;;;;;;4.97;4.00;;;;;;;25.46;48.62;101215.59;1858366;77;21002;-85
2021/07/25 07:35:22;;;;;;;4.95;3.80;;;;;;;25.57;48.80;101208.06;1812862;76;22528;-85
2021/07/25 07:37:49;;;;;;;10.30;4.37;;;;;;;25.67;48.84;101202.80;1848318;76;20967;-85
2021/07/25 07:40:17;;;;;;;5.95;3.85;;;;;;;25.78;48.73;101202.47;1846759;76;21447;-85
2021/07/25 07:42:46;;;;;;;5.78;4.65;;;;;;;25.82;48.88;101200.56;1818585;76;21373;-85
2021/07/25 07:45:14;;;;;;;7.83;5.28;;;;;;;25.83;48.42;101200.97;1825735;77;21485;-85
2021/07/25 07:47:40;;;;;;;7.67;4.10;;;;;;;25.71;48.19;101197.72;1837064;77;21780;-85
2021/07/25 07:50:09;;;;;;;5.62;4.30;;;;;;;25.71;48.58;101195.03;1846486;77;21014;-85
2021/07/25 07:52:36;;;;;;;4.65;3.75;;;;;;;25.79;48.58;101200.21;1846799;77;20920;-85
2021/07/25 07:55:03;;;;;;;6.83;4.70;;;;;;;25.77;48.33;101204.73;1846792;77;21571;-85
2021/07/25 07:57:31;;;;;;;6.33;4.12;;;;;;;25.69;48.33;101194.19;1847092;77;21540;-85
2021/07/25 07:59:57;;;;;;;5.72;4.90;;;;;;;25.66;48.25;101191.61;1827707;77;22457;-85
2021/07/25 08:02:24;;;;;;;9.05;5.08;;;;;;;25.68;48.37;101193.80;1846871;77;21026;-85
2021/07/25 08:04:51;;;;;;;6.95;5.03;;;;;;;25.74;48.41;101191.38;1847052;77;21010;-85
2021/07/25 08:07:17;;;;;;;7.70;4.47;;;;;;;25.82;48.47;101187.95;1846942;77;21020;-85
2021/07/25 08:09:44;;;;;;;9.28;4.58;;;;;;;25.93;48.39;101189.01;1847340;77;20982;-85
2021/07/25 08:12:11;;;;;;;9.30;4.65;;;;;;;26.06;48.42;101186.80;1846951;76;21735;-85
2021/07/25 08:14:38;;;;;;;6.62;4.83;;;;;;;26.19;48.27;101181.41;1846986;77;21015;-85
2021/07/25 08:17:04;;;;;;;7.20;4.50;;;;;;;26.28;48.19;101179.76;1847164;77;20979;-85
2021/07/25 08:19:31;;;;;;;5.60;4.30;;;;;;;26.35;48.09;101176.37;1846994;77;20975;-85
2021/07/25 08:21:58;;;;;;;6.08;4.83;;;;;;;26.43;47.91;101180.15;1847165;77;21418;-85
2021/07/25 08:24:24;;;;;;;7.03;4.90;;;;;;;26.44;47.42;101187.33;1846937;77;21730;-85
2021/07/25 08:26:51;;;;;;;7.00;4.72;;;;;;;26.43;47.28;101192.30;1846900;77;21007;-85
2021/07/25 08:29:18;;;;;;;6.30;4.67;;;;;;;26.41;47.01;101183.38;1846909;77;21050;-85
2021/07/25 08:31:45;;;;;;;5.87;5.28;;;;;;;26.49;47.04;101182.66;1846579;77;20984;-85
2021/07/25 08:34:11;;;;;;;7.83;5.50;;;;;;;26.56;47.08;101183.75;1847061;77;21464;-85
2021/07/25 08:36:39;;;;;;;6.60;5.30;;;;;;;26.70;46.93;101183.76;1846988;77;21758;-85
2021/07/25 08:39:06;;;;;;;6.33;5.03;;;;;;;26.83;46.77;101182.86;1846863;77;21505;-85
2021/07/25 08:42:00;;;;;;;6.45;5.05;;;;;;;26.94;46.44;101177.47;1841698;76;21030;-85
2021/07/25 08:44:46;;;;;;;9.43;5.12;;;;;;;27.00;45.93;101172.31;1844281;77;21528;-85
2021/07/25 08:47:26;;;;;;;7.70;5.33;;;;;;;27.08;45.95;101175.59;1844508;77;21092;-84
2021/07/25 08:50:08;;;;;;;7.75;5.90;;;;;;;27.17;45.53;101177.56;1847174;77;21798;-85
2021/07/25 08:52:38;;;;;;;6.75;6.03;;;;;;;27.16;44.62;101176.70;1846952;77;21062;-85
2021/07/25 08:55:08;;;;;;;5.95;5.35;;;;;;;27.15;44.45;101173.56;1846217;77;21057;-85
2021/07/25 08:57:37;;;;;;;9.08;6.12;;;;;;;27.24;44.16;101165.59;1846838;77;21062;-85
2021/07/25 09:00:07;;;;;;;8.20;6.28;;;;;;;27.33;43.72;101162.09;1837740;76;21189;-84
2021/07/25 09:02:34;;;;;;;6.30;5.35;;;;;;;27.42;43.49;101162.66;1817162;77;22580;-85
2021/07/25 09:05:01;;;;;;;7.58;4.53;;;;;;;27.46;44.90;101158.89;1846899;77;20972;-84
2021/07/25 09:07:30;;;;;;;8.45;4.67;;;;;;;27.45;45.92;101167.97;1846806;77;21532;-84
2021/07/25 09:10:07;;;;;;;8.23;4.53;;;;;;;27.30;46.41;101159.50;1846758;77;21015;-85
2021/07/25 09:12:34;;;;;;;7.83;4.92;;;;;;;27.30;46.90;101166.25;1846911;77;21425;-85
2021/07/25 09:15:05;;;;;;;7.62;4.60;;;;;;;27.26;47.07;101159.69;1846966;77;22532;-85
2021/07/25 09:17:31;;;;;;;6.70;5.45;;;;;;;27.24;47.33;101167.81;1846983;77;20912;-84
2021/07/25 09:20:24;;;;;;;7.50;5.00;;;;;;;27.16;47.09;101161.83;1847249;77;20987;-84
2021/07/25 09:23:08;;;;;;;6.90;4.95;;;;;;;27.09;47.56;101158.94;1842332;77;21023;-84
2021/07/25 09:25:39;;;;;;;6.58;5.03;;;;;;;27.07;47.39;101161.70;1858723;77;20959;-84
2021/07/25 09:28:13;;;;;;;7.85;5.37;;;;;;;27.07;47.65;101148.66;1857563;77;21761;-84
2021/07/25 09:30:40;;;;;;;6.80;5.15;;;;;;;27.12;47.63;101151.60;1858440;77;20987;-85
2021/07/25 09:33:30;;;;;;;8.60;5.85;;;;;;;27.14;47.60;101150.17;1858569;77;21108;-85
2021/07/25 09:36:12;;;;;;;6.35;5.05;;;;;;;27.09;47.60;101153.54;1858013;77;21084;-85
2021/07/25 09:38:40;;;;;;;8.20;5.08;;;;;;;27.08;47.82;101156.69;1858540;77;20967;-84
2021/07/25 09:41:21;;;;;;;6.50;5.12;;;;;;;27.11;47.77;101157.06;1858463;76;21829;-84
2021/07/25 09:44:11;;;;;;;6.42;5.60;;;;;;;27.10;47.83;101148.53;1840737;76;20971;-84
2021/07/25 09:46:48;;;;;;;7.05;5.03;;;;;;;27.21;48.01;101149.48;1835529;77;21073;-84
2021/07/25 09:49:17;;;;;;;7.85;5.22;;;;;;;27.26;47.63;101145.70;1847202;77;21007;-84
2021/07/25 09:51:44;;;;;;;6.90;5.08;;;;;;;27.25;47.87;101134.91;1846921;77;21616;-84
2021/07/25 09:54:11;;;;;;;10.35;5.22;;;;;;;27.50;48.08;101140.29;1846510;77;21674;-84
2021/07/25 09:56:37;;;;;;;6.58;5.08;;;;;;;27.68;47.82;101150.83;1846968;76;20991;-84
2021/07/25 09:59:08;;;;;;;5.87;5.03;;;;;;;27.82;47.65;101147.11;1847324;77;20999;-84
2021/07/25 10:01:41;;;;;;;11.80;5.25;;;;;;;27.79;47.53;101146.34;1811060;77;21465;-84
2021/07/25 10:04:18;;;;;;;7.30;5.10;;;;;;;27.81;47.60;101126.39;1846799;77;27636;-84
2021/07/25 10:06:46;;;;;;;10.43;7.85;;;;;;;28.06;47.76;101126.75;1837053;77;21750;-84
2021/07/25 10:09:16;;;;;;;12.47;8.48;;;;;;;28.28;46.31;101124.89;1846678;77;20983;-84
2021/07/25 10:11:55;;;;;;;8.60;7.58;;;;;;;28.41;45.07;101120.31;1846388;77;21250;-84
2021/07/25 10:14:22;;;;;;;9.43;8.53;;;;;;;28.56;44.13;101112.89;1840856;76;20992;-84
2021/07/25 10:16:53;;;;;;;9.65;8.08;;;;;;;28.76;43.62;101113.36;1846985;76;21472;-84
2021/07/25 10:19:28;;;;;;;13.22;8.30;;;;;;;28.93;43.01;101104.95;1847036;77;21751;-84
2021/07/25 10:21:58;;;;;;;10.25;7.80;;;;;;;28.98;42.26;101109.66;1839694;76;21053;-84
2021/07/25 10:24:26;;;;;;;11.12;7.53;;;;;;;29.06;42.15;101117.84;1846934;76;20980;-84
2021/07/25 10:26:54;;;;;;;10.70;8.08;;;;;;;29.38;41.89;101124.10;1846950;77;21054;-84
2021/07/25 10:29:23;;;;;;;9.63;7.75;;;;;;;29.59;41.18;101114.04;1847340;77;21157;-84
2021/07/25 10:31:52;;;;;;;12.58;7.60;;;;;;;29.73;40.73;101106.56;1846571;77;21681;-84
2021/07/25 10:34:21;;;;;;;8.78;7.60;;;;;;;29.78;40.31;101110.84;1846763;77;20983;-84
2021/07/25 10:36:51;;;;;;;12.82;7.53;;;;;;;29.80;39.98;101113.48;1846380;77;20979;-83
2021/07/25 10:39:19;;;;;;;8.70;7.80;;;;;;;29.79;39.77;101104.95;1846867;77;21493;-83
2021/07/25 10:41:48;;;;;;;10.43;7.42;;;;;;;29.80;39.86;101110.77;1846837;77;20995;-83
2021/07/25 10:44:17;;;;;;;8.13;7.10;;;;;;;29.92;39.58;101102.48;1846870;77;21746;-83
2021/07/25 10:46:44;;;;;;;7.80;6.95;;;;;;;30.06;39.47;101106.75;1846832;77;21042;-84
2021/07/25 10:49:17;;;;;;;10.03;7.80;;;;;;;30.12;39.21;101106.91;1846868;77;21010;-84
2021/07/25 10:52:00;;;;;;;10.25;7.40;;;;;;;30.02;38.89;101101.95;1846633;77;21031;-84
2021/07/25 10:54:32;;;;;;;8.13;6.83;;;;;;;29.98;39.21;101100.35;1846557;77;21015;-84
2021/07/25 10:57:10;;;;;;;10.80;7.80;;;;;;;30.04;39.02;101104.10;1846809;77;22596;-85
2021/07/25 10:59:50;;;;;;;9.40;8.38;;;;;;;30.11;38.81;101107.84;1814577;77;21061;-84
2021/07/25 11:02:29;;;;;;;8.00;7.15;;;;;;;30.17;38.76;101100.28;1822661;77;21105;-84
2021/07/25 11:05:01;;;;;;;10.10;7.08;;;;;;;30.25;38.61;101103.95;1846216;76;20976;-84
2021/07/25 11:07:33;;;;;;;7.78;6.90;;;;;;;30.36;38.43;101099.36;1846758;77;20975;-84
2021/07/25 11:10:12;;;;;;;11.50;7.42;;;;;;;30.45;38.46;101104.80;1841479;77;21774;-84
2021/07/25 11:12:57;;;;;;;13.13;6.90;;;;;;;30.59;38.43;101103.08;1846590;77;20998;-84
2021/07/25 11:15:34;;;;;;;10.63;7.97;;;;;;;30.61;38.10;101105.27;1846878;77;21090;-84
2021/07/25 11:18:11;;;;;;;9.10;7.22;;;;;;;30.45;37.92;101107.03;1846575;77;20999;-84
2021/07/25 11:20:50;;;;;;;6.72;6.00;;;;;;;30.33;38.03;101109.02;1830447;75;20982;-84
2021/07/25 11:23:15;;;;;;;12.47;6.95;;;;;;;30.28;39.09;101108.37;1845331;76;21840;-84
2021/07/25 11:25:42;;;;;;;6.37;5.05;;;;;;;30.19;40.14;101110.58;1836688;77;20929;-84
2021/07/25 11:28:09;;;;;;;7.97;6.03;;;;;;;30.04;40.75;101105.95;1846949;77;21582;-84
2021/07/25 11:30:56;;;;;;;12.18;6.53;;;;;;;30.01;41.37;101093.42;1846810;77;21419;-84
2021/07/25 11:33:44;;;;;;;9.10;8.18;;;;;;;30.09;40.48;101097.55;1818430;76;21040;-84
2021/07/25 11:36:17;;;;;;;15.00;7.90;;;;;;;30.23;40.00;101100.44;1812631;78;21765;-84